createdAt,value
2023-03-29T05:02:08.998Z,58.45
2023-03-29T05:04:38.758Z,56.34
2023-03-29T05:07:07.799Z,58.32
2023-03-29T05:09:36.466Z,58.78
2023-03-29T05:12:06.759Z,59.40
2023-03-29T05:14:35.436Z,60.69
2023-03-29T05:17:05.423Z,63.94
2023-03-29T05:19:34.318Z,68.69
2023-03-29T05:22:03.001Z,69.99
2023-03-29T05:24:32.077Z,68.14
2023-03-29T05:27:00.998Z,65.93
2023-03-29T05:29:29.773Z,65.89
2023-03-29T05:31:59.973Z,64.11
2023-03-29T05:34:30.036Z,64.87
2023-03-29T05:36:59.527Z,66.02
2023-03-29T05:39:48.679Z,65.76
2023-03-29T05:42:24.226Z,65.96
2023-03-29T05:44:54.472Z,64.20
2023-03-29T05:47:24.152Z,63.43
2023-03-29T05:49:53.048Z,62.64
2023-03-29T05:52:21.776Z,60.18
2023-03-29T05:54:50.887Z,55.01
2023-03-29T05:57:20.856Z,53.48
2023-03-29T05:59:49.984Z,54.87
2023-03-29T06:02:19.048Z,56.24
2023-03-29T06:04:48.239Z,57.12
2023-03-29T06:07:16.967Z,58.07
2023-03-29T06:09:46.096Z,58.92
2023-03-29T06:12:15.121Z,60.13
2023-03-29T06:14:43.725Z,60.52
2023-03-29T06:17:12.928Z,60.67
2023-03-29T06:19:41.726Z,61.11
2023-03-29T06:22:13.685Z,61.60
2023-03-29T06:24:43.581Z,63.96
2023-03-29T06:27:12.269Z,66.01
2023-03-29T06:29:41.475Z,67.12
2023-03-29T06:32:11.590Z,64.95
2023-03-29T06:34:41.261Z,62.51
2023-03-29T06:37:10.306Z,60.40
2023-03-29T06:39:39.103Z,54.96
2023-03-29T06:42:20.005Z,53.34
2023-03-29T06:44:50.069Z,53.64
2023-03-29T06:47:18.888Z,54.36
2023-03-29T06:49:47.863Z,55.48
2023-03-29T06:52:16.744Z,56.15
2023-03-29T06:54:45.863Z,57.00
2023-03-29T06:57:18.927Z,57.24
2023-03-29T06:59:53.513Z,57.39
2023-03-29T07:02:25.033Z,58.46
2023-03-29T07:04:54.728Z,59.32
2023-03-29T07:07:28.211Z,60.09
2023-03-29T07:09:57.008Z,60.57
2023-03-29T07:12:26.695Z,60.44
2023-03-29T07:14:55.859Z,60.57
2023-03-29T07:17:25.529Z,62.78
2023-03-29T07:19:54.332Z,63.36
2023-03-29T07:22:23.927Z,63.99
2023-03-29T07:24:53.537Z,57.58
2023-03-29T07:27:22.965Z,49.98
2023-03-29T07:29:54.691Z,49.60
2023-03-29T07:32:29.475Z,50.99
2023-03-29T07:34:59.849Z,50.38
2023-03-29T07:37:28.771Z,53.62
2023-03-29T07:39:57.421Z,54.39
2023-03-29T07:42:28.348Z,54.33
2023-03-29T07:44:58.829Z,55.78
2023-03-29T07:47:28.010Z,58.05
2023-03-29T07:49:57.382Z,57.06
2023-03-29T07:52:28.339Z,57.01
2023-03-29T07:54:57.827Z,58.86
2023-03-29T07:57:27.511Z,57.91
2023-03-29T07:59:56.107Z,57.88
2023-03-29T08:02:25.038Z,58.70
2023-03-29T08:04:55.117Z,59.20
2023-03-29T08:07:24.842Z,58.87
2023-03-29T08:09:53.858Z,58.32
2023-03-29T08:12:24.516Z,58.68
2023-03-29T08:14:56.756Z,57.52
2023-03-29T08:17:25.996Z,58.03
2023-03-29T08:19:55.077Z,57.57
2023-03-29T08:22:24.029Z,56.41
2023-03-29T08:24:53.236Z,57.08
2023-03-29T08:27:22.336Z,56.29
2023-03-29T08:29:58.198Z,56.54
2023-03-29T08:32:37.172Z,56.36
2023-03-29T08:35:09.821Z,55.78
2023-03-29T08:37:38.713Z,56.48
2023-03-29T08:40:08.780Z,55.81
2023-03-29T08:43:08.766Z,55.53
2023-03-29T08:46:07.961Z,55.12
2023-03-29T08:48:51.655Z,54.31
2023-03-29T08:51:43.307Z,54.17
2023-03-29T08:54:29.364Z,54.51
2023-03-29T08:57:18.598Z,54.68
2023-03-29T08:59:54.170Z,54.75
2023-03-29T09:02:31.652Z,53.98
2023-03-29T09:05:39.594Z,53.95
2023-03-29T09:08:19.809Z,54.44
2023-03-29T09:10:55.306Z,54.40
2023-03-29T09:13:46.045Z,54.38
2023-03-29T09:16:47.772Z,54.44
2023-03-29T09:19:55.085Z,54.25
2023-03-29T09:23:10.488Z,53.81
2023-03-29T09:26:10.504Z,54.01
2023-03-29T09:28:55.055Z,54.00
2023-03-29T09:31:37.442Z,53.66
2023-03-29T09:34:18.352Z,54.00
2023-03-29T09:36:53.598Z,54.37
2023-03-29T09:39:23.921Z,54.10
2023-03-29T09:42:11.010Z,52.77
2023-03-29T09:44:53.060Z,52.62
2023-03-29T09:47:41.521Z,52.24
2023-03-29T09:50:35.677Z,52.03
2023-03-29T09:53:05.795Z,52.02
2023-03-29T09:55:37.624Z,51.95
2023-03-29T09:58:26.576Z,51.43
2023-03-29T10:01:03.295Z,51.56
2023-03-29T10:03:35.544Z,50.91
2023-03-29T10:06:11.219Z,50.52
2023-03-29T10:08:52.012Z,50.57
2023-03-29T10:11:33.467Z,50.51
2023-03-29T10:14:14.254Z,50.44
2023-03-29T10:16:46.637Z,50.89
2023-03-29T10:19:31.273Z,50.26
2023-03-29T10:22:07.951Z,48.48
2023-03-29T10:24:36.775Z,47.64
2023-03-29T10:27:11.149Z,48.53
2023-03-29T10:29:43.691Z,48.30
2023-03-29T10:32:36.538Z,49.33
2023-03-29T10:35:40.249Z,48.56
2023-03-29T10:38:18.605Z,47.42
2023-03-29T10:41:03.349Z,47.73
2023-03-29T10:43:51.079Z,47.41
2023-03-29T10:46:32.148Z,46.90
2023-03-29T10:49:10.390Z,46.89
2023-03-29T10:51:46.974Z,45.74
2023-03-29T10:54:24.799Z,45.57
2023-03-29T10:57:06.120Z,44.79
2023-03-29T11:00:25.095Z,44.08
2023-03-29T11:04:22.450Z,43.36
2023-03-29T11:10:18.364Z,43.30
2023-03-29T11:12:59.404Z,41.60
2023-03-29T11:17:10.338Z,41.67
2023-03-29T11:20:05.704Z,42.51
2023-03-29T11:23:26.230Z,42.33
2023-03-29T11:26:34.684Z,43.38
2023-03-29T11:29:29.162Z,43.41
2023-03-29T11:32:05.333Z,44.06
2023-03-29T11:34:49.952Z,43.90
2023-03-29T11:37:51.445Z,43.70
2023-03-29T11:41:04.915Z,42.37
2023-03-29T11:44:11.842Z,43.18
2023-03-29T11:47:08.163Z,43.11
2023-03-29T11:49:55.217Z,42.70
2023-03-29T11:52:45.540Z,42.92
2023-03-29T11:55:39.233Z,42.46
2023-03-29T11:58:38.277Z,42.61
2023-03-29T12:01:23.840Z,42.25
2023-03-29T12:04:08.149Z,42.63
2023-03-29T12:08:04.387Z,42.83
2023-03-29T12:11:18.937Z,42.41
2023-03-29T12:15:12.560Z,41.63
2023-03-29T12:18:29.267Z,40.92
2023-03-29T12:21:37.595Z,41.09
2023-03-29T12:24:20.072Z,41.78
2023-03-29T12:27:27.839Z,42.33
2023-03-29T12:30:39.286Z,41.99
2023-03-29T12:34:49.897Z,41.72
2023-03-29T12:38:06.513Z,41.02
2023-03-29T12:41:05.181Z,41.50
2023-03-29T12:43:49.776Z,42.25
2023-03-29T12:46:38.485Z,43.15
2023-03-29T12:49:32.573Z,43.54
2023-03-29T12:52:43.024Z,43.39
2023-03-29T12:56:13.187Z,42.79
2023-03-29T12:59:30.460Z,42.80
2023-03-29T13:02:38.989Z,42.57
2023-03-29T13:05:40.785Z,41.74
2023-03-29T13:09:05.794Z,41.53
2023-03-29T13:12:22.878Z,42.07
2023-03-29T13:15:22.114Z,42.13
2023-03-29T13:18:23.013Z,41.10
2023-03-29T13:21:30.044Z,41.69
2023-03-29T13:24:37.214Z,41.46
2023-03-29T13:27:37.683Z,41.52
2023-03-29T13:30:28.086Z,40.48
2023-03-29T13:33:29.215Z,40.23
2023-03-29T13:36:17.056Z,40.23
2023-03-29T13:38:49.787Z,39.87
2023-03-29T13:41:33.692Z,38.83
2023-03-29T13:44:03.061Z,39.21
2023-03-29T13:46:43.224Z,39.60
2023-03-29T13:49:24.690Z,39.21
2023-03-29T13:51:53.482Z,39.37
2023-03-29T13:54:42.033Z,39.13
2023-03-29T13:57:30.395Z,39.14
2023-03-29T14:00:12.684Z,38.98
2023-03-29T14:02:54.144Z,39.49
2023-03-29T14:05:33.723Z,40.16
2023-03-29T14:08:36.921Z,40.33
2023-03-29T14:11:21.402Z,39.98
2023-03-29T14:13:55.808Z,40.60
2023-03-29T14:16:30.579Z,41.19
2023-03-29T14:19:04.093Z,40.96
2023-03-29T14:21:33.434Z,40.73
2023-03-29T14:24:04.465Z,41.36
2023-03-29T14:26:36.226Z,41.99
2023-03-29T14:29:07.517Z,41.31
2023-03-29T14:31:40.307Z,42.40
2023-03-29T14:34:19.068Z,42.42
2023-03-29T14:36:50.353Z,42.08
2023-03-29T14:39:23.429Z,42.37
2023-03-29T14:42:00.071Z,41.89
2023-03-29T14:44:34.950Z,41.54
2023-03-29T14:47:04.665Z,42.00
2023-03-29T14:49:34.041Z,42.29
2023-03-29T14:52:03.746Z,43.05
2023-03-29T14:54:36.390Z,43.54
2023-03-29T14:57:07.621Z,44.00
2023-03-29T14:59:43.630Z,44.46
2023-03-29T15:02:34.379Z,44.75
2023-03-29T15:05:07.931Z,44.75
2023-03-29T15:07:38.013Z,45.12
2023-03-29T15:10:08.400Z,45.32
2023-03-29T15:12:44.041Z,44.75
2023-03-29T15:15:14.364Z,44.86
2023-03-29T15:17:52.191Z,45.25
2023-03-29T15:20:33.899Z,45.68
2023-03-29T15:23:13.732Z,46.32
2023-03-29T15:26:09.057Z,46.83
2023-03-29T15:28:49.394Z,47.09
2023-03-29T15:31:21.128Z,47.58
2023-03-29T15:33:50.032Z,47.79
2023-03-29T15:36:19.023Z,48.00
2023-03-29T15:38:50.922Z,48.30
2023-03-29T15:41:19.790Z,48.84
2023-03-29T15:43:48.602Z,49.41
2023-03-29T15:46:18.129Z,49.79
2023-03-29T15:48:47.802Z,50.03
2023-03-29T15:51:17.404Z,50.40
2023-03-29T15:53:46.680Z,50.70
2023-03-29T15:56:23.235Z,50.71
2023-03-29T15:58:52.685Z,50.44
2023-03-29T16:01:36.918Z,50.56
2023-03-29T16:04:11.963Z,50.83
2023-03-29T16:06:41.923Z,50.73
2023-03-29T16:09:12.216Z,51.03
2023-03-29T16:11:44.687Z,51.12
2023-03-29T16:14:23.362Z,51.47
2023-03-29T16:16:53.422Z,51.70
2023-03-29T16:19:23.380Z,52.14
2023-03-29T16:21:53.530Z,52.35
2023-03-29T16:24:29.700Z,52.39
2023-03-29T16:27:01.474Z,52.73
2023-03-29T16:29:31.461Z,53.14
2023-03-29T16:32:01.056Z,53.49
2023-03-29T16:34:31.557Z,53.83
2023-03-29T16:37:00.519Z,53.92
2023-03-29T16:39:29.557Z,53.75
2023-03-29T16:41:58.916Z,54.07
2023-03-29T16:44:28.196Z,54.48
2023-03-29T16:46:58.615Z,54.47
2023-03-29T16:49:27.569Z,54.73
2023-03-29T16:51:57.541Z,54.97
2023-03-29T16:54:30.407Z,55.13
2023-03-29T16:56:59.213Z,56.06
2023-03-29T16:59:28.428Z,56.20
2023-03-29T17:01:57.336Z,56.28
2023-03-29T17:04:26.646Z,56.42
2023-03-29T17:06:55.722Z,56.63
2023-03-29T17:09:24.516Z,56.83
2023-03-29T17:11:54.116Z,57.30
2023-03-29T17:14:23.625Z,57.61
2023-03-29T17:16:54.360Z,57.98
2023-03-29T17:19:23.518Z,58.03
2023-03-29T17:21:52.280Z,58.24
2023-03-29T17:24:21.325Z,58.30
2023-03-29T17:26:50.236Z,58.22
2023-03-29T17:29:18.877Z,58.14
2023-03-29T17:31:48.231Z,58.30
2023-03-29T17:34:19.514Z,58.45
2023-03-29T17:36:49.159Z,58.41
2023-03-29T17:39:18.937Z,58.83
2023-03-29T17:41:48.356Z,58.85
2023-03-29T17:44:17.346Z,59.20
2023-03-29T17:46:47.119Z,59.27
2023-03-29T17:49:16.085Z,59.48
2023-03-29T17:51:44.835Z,59.62
2023-03-29T17:54:14.016Z,59.90
2023-03-29T17:56:43.052Z,59.85
2023-03-29T17:59:11.822Z,60.13
2023-03-29T18:01:40.703Z,60.31
2023-03-29T18:04:10.057Z,60.37
2023-03-29T18:06:39.105Z,60.65
2023-03-29T18:09:08.005Z,61.00
2023-03-29T18:11:38.658Z,61.10
2023-03-29T18:14:07.850Z,61.26
2023-03-29T18:16:36.984Z,61.32
2023-03-29T18:19:05.721Z,61.48
2023-03-29T18:21:34.812Z,61.75
2023-03-29T20:48:23.896Z,54.89
2023-03-29T20:50:51.988Z,57.00
2023-03-29T20:53:22.786Z,58.72
2023-03-29T20:55:56.010Z,60.46
2023-03-29T20:58:27.633Z,62.15
2023-03-29T21:01:05.603Z,64.64
2023-03-29T21:03:33.473Z,62.32
2023-03-29T21:06:02.079Z,57.22
2023-03-29T21:08:30.569Z,54.36
2023-03-29T21:10:58.127Z,55.58
2023-03-29T21:13:26.436Z,58.37
2023-03-29T21:15:54.039Z,59.81
2023-03-29T21:18:23.057Z,60.14
2023-03-29T21:20:50.625Z,60.62
2023-03-29T21:23:18.277Z,62.80
2023-03-29T21:25:46.128Z,65.66
2023-03-29T21:28:13.885Z,64.36
2023-03-29T21:30:41.337Z,62.84
2023-03-29T21:33:10.092Z,61.30
2023-03-29T21:35:37.836Z,59.12
2023-03-29T21:38:05.925Z,59.45
2023-03-29T21:40:36.285Z,59.89
2023-03-29T21:43:03.775Z,60.51
2023-03-29T21:45:32.189Z,60.17
2023-03-29T21:47:59.467Z,61.12
2023-03-29T21:50:27.873Z,63.51
2023-03-29T21:52:55.526Z,65.35
2023-03-29T21:55:22.902Z,66.24
2023-03-29T21:57:50.339Z,71.09
